createdAt,value
2023-04-28T00:01:45.795Z,23.57
2023-04-28T00:04:13.057Z,18.13
2023-04-28T00:06:41.289Z,20.00
2023-04-28T00:09:11.327Z,12.77
2023-04-28T00:11:41.701Z,9.23
2023-04-28T00:14:08.558Z,16.27
2023-04-28T00:16:35.761Z,11.20
2023-04-28T00:19:02.728Z,13.73
2023-04-28T00:21:29.727Z,14.90
2023-04-28T00:23:56.604Z,13.50
2023-04-28T00:26:23.554Z,13.17
2023-04-28T00:28:50.929Z,12.67
2023-04-28T00:31:17.884Z,10.17
2023-04-28T00:33:44.875Z,10.10
2023-04-28T00:36:11.911Z,7.27
2023-04-28T00:38:38.869Z,11.97
2023-04-28T00:41:06.059Z,6.77
2023-04-28T00:43:32.945Z,13.30
2023-04-28T00:45:59.999Z,18.70
2023-04-28T00:48:27.916Z,10.23
2023-04-28T00:50:55.047Z,16.33
2023-04-28T00:53:22.113Z,9.83
2023-04-28T00:55:51.086Z,6.77
2023-04-28T00:58:18.033Z,8.23
2023-04-28T01:00:44.915Z,7.77
2023-04-28T01:03:12.375Z,10.60
2023-04-28T01:05:39.591Z,11.10
2023-04-28T01:08:06.602Z,13.53
2023-04-28T01:10:33.937Z,8.40
2023-04-28T01:13:07.962Z,9.70
2023-04-28T01:15:35.220Z,15.17
2023-04-28T01:18:02.226Z,12.07
2023-04-28T01:20:29.521Z,7.60
2023-04-28T01:22:56.374Z,6.43
2023-04-28T01:25:23.598Z,6.97
2023-04-28T01:27:50.597Z,9.20
2023-04-28T01:30:17.633Z,8.80
2023-04-28T01:32:44.562Z,6.37
2023-04-28T01:35:11.417Z,7.30
2023-04-28T01:37:38.384Z,8.07
2023-04-28T01:40:05.925Z,7.63
2023-04-28T01:42:32.876Z,6.23
2023-04-28T01:45:03.574Z,13.50
2023-04-28T01:47:30.710Z,10.30
2023-04-28T01:49:57.816Z,8.10
2023-04-28T01:52:24.754Z,15.20
2023-04-28T01:54:52.363Z,16.10
2023-04-28T01:57:20.584Z,15.00
2023-04-28T01:59:49.338Z,9.33
2023-04-28T02:02:16.549Z,10.30
2023-04-28T02:04:43.672Z,15.30
2023-04-28T02:07:10.739Z,9.50
2023-04-28T02:09:37.633Z,7.07
2023-04-28T02:12:04.816Z,8.80
2023-04-28T02:14:34.927Z,14.03
2023-04-28T02:17:03.545Z,7.00
2023-04-28T02:19:30.433Z,7.37
2023-04-28T02:21:57.310Z,7.00
2023-04-28T02:24:24.220Z,6.73
2023-04-28T02:26:51.098Z,6.97
2023-04-28T02:29:18.246Z,9.73
2023-04-28T02:31:45.129Z,8.60
2023-04-28T02:34:12.082Z,11.60
2023-04-28T02:36:39.632Z,7.70
2023-04-28T02:39:07.548Z,5.63
2023-04-28T02:41:34.930Z,7.80
2023-04-28T02:44:01.970Z,9.47
2023-04-28T02:46:29.191Z,8.13
2023-04-28T02:48:57.434Z,8.50
2023-04-28T02:51:24.290Z,5.50
2023-04-28T02:53:51.321Z,6.03
2023-04-28T02:56:18.296Z,7.10
2023-04-28T02:58:45.271Z,7.07
2023-04-28T03:01:12.312Z,5.50
2023-04-28T03:03:39.396Z,11.23
2023-04-28T03:06:06.640Z,7.40
2023-04-28T03:08:33.525Z,5.10
2023-04-28T03:11:00.881Z,7.57
2023-04-28T03:13:30.243Z,6.27
2023-04-28T03:15:57.632Z,6.93
2023-04-28T03:18:24.755Z,8.03
2023-04-28T03:20:51.824Z,7.47
2023-04-28T03:23:19.928Z,8.10
2023-04-28T03:25:46.802Z,6.60
2023-04-28T03:28:13.742Z,7.43
2023-04-28T03:30:40.790Z,7.77
2023-04-28T03:33:07.871Z,5.90
2023-04-28T03:35:34.957Z,5.97
2023-04-28T03:38:01.848Z,5.27
2023-04-28T03:40:28.698Z,5.63
2023-04-28T03:43:15.830Z,5.73
2023-04-28T03:46:04.440Z,8.60
2023-04-28T03:48:31.361Z,6.30
2023-04-28T03:50:58.275Z,6.57
2023-04-28T03:53:25.913Z,7.70
2023-04-28T03:55:53.451Z,12.03
2023-04-28T03:58:20.584Z,6.20
2023-04-28T04:00:47.531Z,7.10
2023-04-28T04:03:14.567Z,6.30
2023-04-28T04:05:43.911Z,6.67
2023-04-28T04:08:11.312Z,9.77
2023-04-28T04:10:38.337Z,9.30
2023-04-28T04:13:05.726Z,5.30
2023-04-28T04:15:32.781Z,7.87
2023-04-28T04:17:59.822Z,7.27
2023-04-28T04:20:31.900Z,7.47
2023-04-28T04:22:58.784Z,6.33
2023-04-28T04:25:25.782Z,5.33
2023-04-28T04:27:53.368Z,6.70
2023-04-28T04:30:20.852Z,6.17
2023-04-28T04:32:47.824Z,5.80
2023-04-28T04:35:14.853Z,8.00
2023-04-28T04:37:41.819Z,4.87
2023-04-28T04:40:09.382Z,7.57
2023-04-28T04:42:43.275Z,7.63
2023-04-28T04:45:17.949Z,5.47
2023-04-28T04:47:45.071Z,8.80
2023-04-28T04:50:12.518Z,5.73
2023-04-28T04:52:39.694Z,5.80
2023-04-28T04:55:07.628Z,6.17
2023-04-28T04:57:34.533Z,5.33
2023-04-28T05:00:18.413Z,5.07
2023-04-28T05:02:46.111Z,6.67
2023-04-28T05:05:21.240Z,5.13
2023-04-28T05:08:04.021Z,5.37
2023-04-28T05:10:31.053Z,5.13
2023-04-28T05:12:58.993Z,5.93
2023-04-28T05:15:26.207Z,5.33
2023-04-28T05:18:13.925Z,6.30
2023-04-28T05:20:40.908Z,6.93
2023-04-28T05:23:08.433Z,6.50
2023-04-28T05:25:35.404Z,7.10
2023-04-28T05:28:07.834Z,6.40
2023-04-28T05:30:34.923Z,8.40
2023-04-28T05:33:02.213Z,6.07
2023-04-28T05:35:29.443Z,5.17
2023-04-28T05:37:56.578Z,7.10
2023-04-28T05:40:23.432Z,7.30
2023-04-28T05:42:50.278Z,8.90
2023-04-28T05:45:17.234Z,5.17
2023-04-28T05:47:44.301Z,8.33
2023-04-28T05:50:11.409Z,6.17
2023-04-28T05:52:38.545Z,6.77
2023-04-28T05:55:05.781Z,5.27
2023-04-28T05:57:38.944Z,6.10
2023-04-28T06:00:17.528Z,4.70
2023-04-28T06:02:44.525Z,4.90
2023-04-28T06:05:11.964Z,8.53
2023-04-28T06:07:39.147Z,6.47
2023-04-28T06:10:06.725Z,5.47
2023-04-28T06:12:33.659Z,5.80
2023-04-28T06:15:01.300Z,7.53
2023-04-28T06:17:28.362Z,5.13
2023-04-28T06:19:55.991Z,5.03
2023-04-28T06:22:22.820Z,7.43
2023-04-28T06:24:49.792Z,5.90
2023-04-28T06:27:20.005Z,6.37
2023-04-28T06:29:46.913Z,6.93
2023-04-28T06:32:13.782Z,5.27
2023-04-28T06:34:42.113Z,5.20
2023-04-28T06:37:08.950Z,4.70
2023-04-28T06:39:36.058Z,7.80
2023-04-28T06:42:03.511Z,8.27
2023-04-28T06:44:34.818Z,6.23
2023-04-28T06:47:03.626Z,5.93
2023-04-28T06:49:30.518Z,6.90
2023-04-28T06:52:00.186Z,6.57
2023-04-28T06:54:30.213Z,13.73
2023-04-28T06:56:57.111Z,13.60
2023-04-28T06:59:24.676Z,31.10
2023-04-28T07:01:51.551Z,15.13
2023-04-28T07:04:18.642Z,7.73
2023-04-28T07:06:46.031Z,7.03
2023-04-28T07:09:13.138Z,5.40
2023-04-28T07:11:39.992Z,6.60
2023-04-28T07:14:08.440Z,7.60
2023-04-28T07:16:36.292Z,7.17
2023-04-28T07:19:03.230Z,9.77
2023-04-28T07:21:30.177Z,11.10
2023-04-28T07:23:57.303Z,4.80
2023-04-28T07:26:24.390Z,6.27
2023-04-28T07:28:51.873Z,6.70
2023-04-28T07:31:18.835Z,6.10
2023-04-28T07:33:45.770Z,7.03
2023-04-28T07:36:12.602Z,5.80
2023-04-28T07:38:39.546Z,5.27
2023-04-28T07:41:07.712Z,5.70
2023-04-28T07:43:37.056Z,7.43
2023-04-28T07:46:04.117Z,4.30
2023-04-28T07:48:32.622Z,5.17
2023-04-28T07:50:59.494Z,6.80
2023-04-28T07:53:26.666Z,5.67
2023-04-28T07:55:53.586Z,6.03
2023-04-28T07:58:20.547Z,14.43
2023-04-28T08:00:47.456Z,6.63
2023-04-28T08:03:14.526Z,5.30
2023-04-28T08:05:41.708Z,8.47
2023-04-28T08:08:08.591Z,6.93
2023-04-28T08:10:35.450Z,5.70
2023-04-28T08:13:03.014Z,8.70
2023-04-28T08:15:30.005Z,5.70
2023-04-28T08:17:57.041Z,8.50
2023-04-28T08:20:24.773Z,14.00
2023-04-28T08:22:52.031Z,9.43
2023-04-28T08:25:18.841Z,5.63
2023-04-28T08:27:45.776Z,8.07
2023-04-28T08:30:12.828Z,10.67
2023-04-28T08:32:39.702Z,6.60
2023-04-28T08:35:07.363Z,6.70
2023-04-28T08:37:37.044Z,8.13
2023-04-28T08:40:10.093Z,7.43
2023-04-28T08:42:37.810Z,6.83
2023-04-28T08:45:05.784Z,6.53
2023-04-28T08:47:36.733Z,7.37
2023-04-28T08:50:08.693Z,6.63
2023-04-28T08:52:36.875Z,6.00
2023-04-28T08:55:10.062Z,6.73
2023-04-28T08:57:44.492Z,6.87
2023-04-28T09:00:12.278Z,7.07
2023-04-28T09:02:42.515Z,9.07
2023-04-28T09:05:11.840Z,8.27
2023-04-28T09:07:39.103Z,12.70
2023-04-28T09:10:23.766Z,9.00
2023-04-28T09:12:56.177Z,6.50
2023-04-28T09:15:32.660Z,8.03
2023-04-28T09:18:02.421Z,10.40
2023-04-28T09:20:31.640Z,8.03
2023-04-28T09:23:31.012Z,7.40
2023-04-28T09:26:06.655Z,15.00
2023-04-28T09:28:35.371Z,8.03
2023-04-28T09:31:02.803Z,9.07
2023-04-28T09:33:30.067Z,8.30
2023-04-28T09:35:57.014Z,9.53
2023-04-28T09:38:23.979Z,8.97
2023-04-28T09:41:02.079Z,11.13
2023-04-28T09:43:34.579Z,8.80
2023-04-28T09:46:03.809Z,8.40
2023-04-28T09:48:33.843Z,12.13
2023-04-28T09:51:03.518Z,8.53
2023-04-28T09:53:31.192Z,10.47
2023-04-28T09:56:00.174Z,9.77
2023-04-28T09:58:28.228Z,8.33
2023-04-28T10:01:00.394Z,9.37
2023-04-28T10:03:30.154Z,8.20
2023-04-28T10:05:59.224Z,9.57
2023-04-28T10:08:27.650Z,9.53
2023-04-28T10:10:55.807Z,11.40
2023-04-28T10:13:23.493Z,12.33
2023-04-28T10:15:51.522Z,10.87
2023-04-28T10:18:18.954Z,10.23
2023-04-28T10:20:49.025Z,13.43
2023-04-28T10:23:47.213Z,13.97
2023-04-28T10:26:15.792Z,10.40
2023-04-28T10:28:50.943Z,15.93
2023-04-28T10:31:23.579Z,10.53
2023-04-28T10:33:50.793Z,12.73
2023-04-28T10:36:55.186Z,12.60
2023-04-28T10:39:22.132Z,13.37
2023-04-28T10:41:49.456Z,11.17
2023-04-28T10:44:28.551Z,11.20
2023-04-28T10:47:09.927Z,12.20
2023-04-28T10:49:55.705Z,11.63
2023-04-28T10:52:40.982Z,11.67
2023-04-28T10:55:28.937Z,10.13
2023-04-28T10:58:18.382Z,9.93
2023-04-28T11:00:46.002Z,9.83
2023-04-28T11:03:52.504Z,10.43
2023-04-28T11:06:41.834Z,13.07
2023-04-28T11:09:17.796Z,10.73
2023-04-28T11:12:00.008Z,11.63
2023-04-28T11:14:32.934Z,15.90
2023-04-28T11:17:01.924Z,11.40
2023-04-28T11:19:33.322Z,11.57
2023-04-28T11:22:03.029Z,12.90
2023-04-28T11:24:31.225Z,11.70
2023-04-28T11:27:01.345Z,11.70
2023-04-28T11:29:36.112Z,12.20
2023-04-28T11:32:04.515Z,12.03
2023-04-28T11:34:32.133Z,10.33
2023-04-28T11:36:59.168Z,11.10
2023-04-28T11:39:31.244Z,10.70
2023-04-28T11:42:10.993Z,11.97
2023-04-28T11:44:38.301Z,19.60
2023-04-28T11:47:06.570Z,16.20
2023-04-28T11:49:43.781Z,12.77
2023-04-28T11:52:11.989Z,11.57
2023-04-28T11:54:39.380Z,11.23
2023-04-28T11:57:06.819Z,12.77
2023-04-28T11:59:35.689Z,12.10
2023-04-28T12:02:05.227Z,10.03
2023-04-28T12:04:35.892Z,8.50
2023-04-28T12:07:15.411Z,10.10
2023-04-28T12:09:44.588Z,10.20
2023-04-28T12:12:18.354Z,9.53
2023-04-28T12:15:05.511Z,9.53
2023-04-28T12:17:41.758Z,9.87
2023-04-28T12:20:11.999Z,9.73
2023-04-28T12:22:46.999Z,8.00
2023-04-28T12:25:16.808Z,8.50
2023-04-28T12:28:05.840Z,9.10
2023-04-28T12:30:44.297Z,8.87
2023-04-28T12:33:25.336Z,8.40
2023-04-28T12:35:55.359Z,8.87
2023-04-28T12:38:23.416Z,9.10
2023-04-28T12:40:50.323Z,10.83
2023-04-28T12:43:17.212Z,8.53
2023-04-28T12:45:44.100Z,8.13
2023-04-28T12:48:11.234Z,7.63
2023-04-28T12:50:38.088Z,9.00
2023-04-28T12:53:05.347Z,9.07
2023-04-28T12:55:32.450Z,8.53
2023-04-28T12:57:59.666Z,10.00
2023-04-28T13:00:26.672Z,10.47
2023-04-28T13:02:53.762Z,9.80
2023-04-28T13:05:20.986Z,15.63
2023-04-28T13:07:49.591Z,13.63
2023-04-28T13:10:16.995Z,10.50
2023-04-28T13:12:44.094Z,9.83
2023-04-28T13:15:11.733Z,11.90
2023-04-28T13:17:38.736Z,10.30
2023-04-28T13:20:06.943Z,10.60
2023-04-28T13:22:33.786Z,11.77
2023-04-28T13:25:00.654Z,10.80
2023-04-28T13:27:30.524Z,12.60
2023-04-28T13:29:59.420Z,11.70
2023-04-28T13:32:26.436Z,12.13
2023-04-28T13:34:53.340Z,10.53
2023-04-28T13:37:20.256Z,10.83
2023-04-28T13:39:47.191Z,12.40
2023-04-28T13:42:14.302Z,12.53
2023-04-28T13:44:41.438Z,11.60
2023-04-28T13:47:10.028Z,12.57
2023-04-28T13:49:37.879Z,13.13
2023-04-28T13:52:04.916Z,13.07
2023-04-28T13:54:31.853Z,12.70
2023-04-28T13:56:58.768Z,13.47
2023-04-28T13:59:25.709Z,13.60
2023-04-28T14:01:52.577Z,11.63
2023-04-28T14:04:19.906Z,13.80
2023-04-28T14:06:46.933Z,13.47
2023-04-28T14:09:13.825Z,14.40
2023-04-28T14:11:40.660Z,14.50
2023-04-28T14:14:07.565Z,12.90
2023-04-28T14:16:34.459Z,14.10
2023-04-28T14:19:01.952Z,15.87
2023-04-28T14:21:29.006Z,16.27
2023-04-28T14:23:55.851Z,13.77
2023-04-28T14:26:24.040Z,15.03
2023-04-28T14:28:51.070Z,16.60
2023-04-28T14:31:18.374Z,15.13
2023-04-28T14:33:45.238Z,15.37
2023-04-28T14:36:12.116Z,14.87
2023-04-28T14:38:40.270Z,14.70
2023-04-28T14:41:07.274Z,14.07
2023-04-28T14:43:34.261Z,15.67
2023-04-28T14:46:01.344Z,14.33
2023-04-28T14:48:28.350Z,16.00
2023-04-28T14:50:55.272Z,16.47
2023-04-28T14:53:22.144Z,16.23
2023-04-28T14:55:49.115Z,17.03
2023-04-28T14:58:16.310Z,19.60
2023-04-28T15:00:43.889Z,15.83
2023-04-28T15:03:10.888Z,14.97
2023-04-28T15:05:37.817Z,15.77
2023-04-28T15:08:04.937Z,18.17
2023-04-28T15:10:38.815Z,16.70
2023-04-28T15:13:07.579Z,16.30
2023-04-28T15:15:35.122Z,16.57
2023-04-28T15:18:02.283Z,18.57
2023-04-28T15:20:37.344Z,16.67
2023-04-28T15:23:04.296Z,17.80
2023-04-28T15:25:31.255Z,16.90
2023-04-28T15:27:58.511Z,20.90
2023-04-28T15:30:25.394Z,22.20
2023-04-28T15:32:52.317Z,18.30
2023-04-28T15:35:19.411Z,19.97
2023-04-28T15:37:52.245Z,17.90
2023-04-28T15:40:20.021Z,19.13
2023-04-28T15:42:52.392Z,16.90
2023-04-28T15:45:22.798Z,17.33
2023-04-28T15:47:51.036Z,18.47
2023-04-28T15:50:19.805Z,17.80
2023-04-28T15:52:48.076Z,20.40
2023-04-28T15:55:16.835Z,19.33
2023-04-28T15:57:44.524Z,19.97
2023-04-28T16:00:11.942Z,17.80
2023-04-28T16:02:39.513Z,18.40
2023-04-28T16:05:07.448Z,19.40
2023-04-28T16:07:44.701Z,17.10
2023-04-28T16:10:14.014Z,17.33
2023-04-28T16:12:42.119Z,17.07
2023-04-28T16:15:11.150Z,17.87
2023-04-28T16:17:38.817Z,19.53
2023-04-28T16:20:07.663Z,15.97
2023-04-28T16:22:35.974Z,16.33
2023-04-28T16:25:05.924Z,17.57
2023-04-28T16:27:33.746Z,15.60
2023-04-28T16:30:00.842Z,18.00
2023-04-28T16:32:27.748Z,16.80
2023-04-28T16:34:58.672Z,19.33
2023-04-28T16:37:26.127Z,16.90
2023-04-28T16:39:53.091Z,16.67
2023-04-28T16:42:23.009Z,17.73
2023-04-28T16:44:52.645Z,18.67
2023-04-28T16:47:20.198Z,17.83
2023-04-28T16:49:47.337Z,19.53
2023-04-28T16:52:14.588Z,18.23
2023-04-28T16:54:41.905Z,18.27
2023-04-28T16:57:15.241Z,16.97
2023-04-28T16:59:42.176Z,17.37
2023-04-28T17:02:09.068Z,18.47
2023-04-28T17:04:36.909Z,19.07
2023-04-28T17:07:05.552Z,18.27
2023-04-28T17:09:33.556Z,18.50
2023-04-28T17:12:01.082Z,18.40
2023-04-28T17:14:28.117Z,18.63
2023-04-28T17:16:55.137Z,19.40
2023-04-28T17:19:22.619Z,19.07
2023-04-28T17:21:52.638Z,20.87
2023-04-28T17:24:19.638Z,19.97
2023-04-28T17:26:46.571Z,18.87
2023-04-28T17:29:13.489Z,18.23
2023-04-28T17:31:40.516Z,19.77
2023-04-28T17:34:07.605Z,20.07
2023-04-28T17:36:34.975Z,18.90
2023-04-28T17:39:03.835Z,19.97
2023-04-28T17:41:32.166Z,17.30
2023-04-28T17:43:59.325Z,18.80
2023-04-28T17:46:26.570Z,19.20
2023-04-28T17:48:53.634Z,18.83
2023-04-28T17:51:21.281Z,20.13
2023-04-28T17:53:49.004Z,19.87
2023-04-28T17:56:16.528Z,18.60
2023-04-28T17:58:43.654Z,22.10
2023-04-28T18:01:10.607Z,22.60
2023-04-28T18:03:38.972Z,24.53
2023-04-28T18:06:08.133Z,22.03
2023-04-28T18:08:37.053Z,20.23
2023-04-28T18:11:05.192Z,20.00
2023-04-28T18:13:33.380Z,19.20
2023-04-28T18:16:01.345Z,21.90
2023-04-28T18:18:30.553Z,20.90
2023-04-28T18:20:59.357Z,23.00
2023-04-28T18:23:27.294Z,23.37
2023-04-28T18:25:54.346Z,23.60
2023-04-28T18:28:21.405Z,24.30
2023-04-28T18:30:48.543Z,21.73
2023-04-28T18:33:15.969Z,22.37
2023-04-28T18:35:42.929Z,20.70
2023-04-28T18:38:10.159Z,22.73
2023-04-28T18:40:38.917Z,22.37
2023-04-28T18:43:07.217Z,21.37
2023-04-28T18:45:36.507Z,20.10
2023-04-28T18:48:04.487Z,23.03
2023-04-28T18:50:32.673Z,22.43
2023-04-28T18:53:04.564Z,23.77
2023-04-28T18:55:34.634Z,25.50
2023-04-28T18:58:04.411Z,27.30
2023-04-28T19:00:32.882Z,22.80
2023-04-28T19:03:00.705Z,25.03
2023-04-28T19:05:27.925Z,23.40
2023-04-28T19:07:54.788Z,24.90
2023-04-28T19:10:24.670Z,24.30
2023-04-28T19:12:51.731Z,21.97
2023-04-28T19:15:19.066Z,22.97
2023-04-28T19:17:45.966Z,21.20
2023-04-28T19:20:13.754Z,23.73
2023-04-28T19:22:44.505Z,24.33
2023-04-28T19:25:11.890Z,23.43
2023-04-28T19:27:41.094Z,23.50
2023-04-28T19:30:10.570Z,26.57
2023-04-28T19:32:37.861Z,22.53
2023-04-28T19:35:05.268Z,25.73
2023-04-28T19:37:35.934Z,23.87
2023-04-28T19:40:07.539Z,27.00
2023-04-28T19:42:38.960Z,26.03
2023-04-28T19:45:06.671Z,29.70
2023-04-28T19:47:37.982Z,24.57
2023-04-28T19:50:05.579Z,24.40
2023-04-28T19:52:33.917Z,23.47
2023-04-28T19:55:01.161Z,23.03
2023-04-28T19:57:31.250Z,26.90
2023-04-28T19:59:58.635Z,26.97
2023-04-28T20:02:25.813Z,27.53
2023-04-28T20:04:52.964Z,30.53
2023-04-28T20:07:20.066Z,27.00
2023-04-28T20:09:47.343Z,26.73
2023-04-28T20:12:15.462Z,24.03
2023-04-28T20:14:44.584Z,25.33
2023-04-28T20:17:11.639Z,24.10
2023-04-28T20:19:38.971Z,22.63
2023-04-28T20:22:08.396Z,23.70
2023-04-28T20:24:36.469Z,23.03
2023-04-28T20:27:04.450Z,24.33
2023-04-28T20:29:34.813Z,26.43
2023-04-28T20:32:02.740Z,31.60
2023-04-28T20:34:29.726Z,30.43
2023-04-28T20:36:58.308Z,33.97
2023-04-28T20:39:25.919Z,32.63
2023-04-28T20:41:52.808Z,30.87
2023-04-28T20:44:19.701Z,31.73
2023-04-28T20:46:46.709Z,29.00
2023-04-28T20:49:13.821Z,27.03
2023-04-28T20:51:48.090Z,24.83
2023-04-28T20:54:15.397Z,24.43
2023-04-28T20:56:43.174Z,24.20
2023-04-28T20:59:10.074Z,24.67
2023-04-28T21:01:37.412Z,22.23
2023-04-28T21:04:04.534Z,25.10
2023-04-28T21:06:31.583Z,24.77
2023-04-28T21:08:58.557Z,23.63
2023-04-28T21:11:25.568Z,24.80
2023-04-28T21:13:52.664Z,24.47
2023-04-28T21:16:21.721Z,25.83
2023-04-28T21:18:49.781Z,27.47
2023-04-28T21:21:17.209Z,25.70
2023-04-28T21:23:44.509Z,25.03
2023-04-28T21:26:11.609Z,26.70
2023-04-28T21:28:40.082Z,30.77
2023-04-28T21:31:07.422Z,30.20
2023-04-28T21:33:34.605Z,28.77
2023-04-28T21:36:08.832Z,30.23
2023-04-28T21:38:39.707Z,29.00
2023-04-28T21:41:07.891Z,28.47
2023-04-28T21:43:35.467Z,29.77
2023-04-28T21:46:02.457Z,34.07
2023-04-28T21:48:29.572Z,33.20
2023-04-28T21:50:57.211Z,32.13
2023-04-28T21:53:24.156Z,33.43
2023-04-28T21:55:51.132Z,38.50
2023-04-28T21:58:18.064Z,43.00
2023-04-28T22:00:47.335Z,34.77
2023-04-28T22:03:15.704Z,31.53
2023-04-28T22:05:44.480Z,31.27
2023-04-28T22:08:12.137Z,32.60
2023-04-28T22:10:39.382Z,29.70
2023-04-28T22:13:06.850Z,33.30
2023-04-28T22:15:34.170Z,30.30
2023-04-28T22:18:01.341Z,34.30
2023-04-28T22:20:28.478Z,38.53
2023-04-28T22:22:57.920Z,37.40
2023-04-28T22:25:25.536Z,36.33
2023-04-28T22:27:52.585Z,49.70
2023-04-28T22:30:19.802Z,40.53
2023-04-28T22:32:47.710Z,32.37
2023-04-28T22:35:16.917Z,33.73
2023-04-28T22:37:44.413Z,36.50
2023-04-28T22:40:11.600Z,34.83
2023-04-28T22:42:40.425Z,32.90
2023-04-28T22:45:08.084Z,35.10
2023-04-28T22:47:35.377Z,33.87
2023-04-28T22:50:06.640Z,32.40
2023-04-28T22:52:34.528Z,32.67
2023-04-28T22:55:01.631Z,28.03
2023-04-28T22:57:29.031Z,34.13
2023-04-28T22:59:56.304Z,31.60
2023-04-28T23:02:23.701Z,29.40
2023-04-28T23:04:51.279Z,28.20
2023-04-28T23:07:18.381Z,27.37
2023-04-28T23:09:45.445Z,26.10
2023-04-28T23:12:12.735Z,28.40
2023-04-28T23:14:39.864Z,28.90
2023-04-28T23:17:06.884Z,28.70
2023-04-28T23:19:35.863Z,29.47
2023-04-28T23:22:02.948Z,29.67
2023-04-28T23:24:29.906Z,26.00
2023-04-28T23:26:56.952Z,26.83
2023-04-28T23:29:24.155Z,26.43
2023-04-28T23:31:55.017Z,24.37
2023-04-28T23:34:23.217Z,31.13
2023-04-28T23:36:51.259Z,27.50
2023-04-28T23:39:18.265Z,31.33
2023-04-28T23:41:45.311Z,28.80
2023-04-28T23:44:12.389Z,32.50
2023-04-28T23:46:39.375Z,31.40
2023-04-28T23:49:06.345Z,31.87
2023-04-28T23:51:33.425Z,33.30
2023-04-28T23:54:00.454Z,24.80
2023-04-28T23:56:27.602Z,27.63
2023-04-28T23:58:54.723Z,22.67
